Time;durP1;ratioP1;P1;durP2;ratioP2;P2;SDS_P1;SDS_P2;PMS_P1;PMS_P2;Temp;Humidity;BMP_temperature;BMP_pressure;BME280_temperature;BME280_humidity;BME280_pressure;Samples;Min_cycle;Max_cycle;Signal;HPM_P1;HPM_P2
2022/11/14 05:43:27;;;;;;;;;;;;;;;9.15;61.79;100729.09;6034182;23;46771;31
2022/11/14 05:45:53;;;;;;;;;27.00;22.75;;;;;9.16;61.92;100734.31;4959864;28;46327;-63
2022/11/14 05:48:18;;;;;;;;;22.00;20.25;;;;;9.17;62.05;100730.81;4960660;28;45235;-64
2022/11/14 05:50:43;;;;;;;;;21.50;17.75;;;;;9.15;62.04;100716.00;4961662;28;45498;-64
2022/11/14 05:53:08;;;;;;;;;21.75;16.50;;;;;9.20;61.77;100727.31;4960600;28;50574;-64
2022/11/14 05:55:34;;;;;;;;;25.25;19.00;;;;;9.20;62.06;100716.81;4942236;28;50227;-63
2022/11/14 05:57:59;;;;;;;;;27.50;21.00;;;;;9.21;62.07;100716.78;4942439;28;45312;-65
2022/11/14 06:00:26;;;;;;;;;18.50;15.25;;;;;9.21;62.16;100715.94;4942340;28;45180;-65
2022/11/14 06:02:55;;;;;;;;;29.00;18.75;;;;;9.19;61.94;100707.19;4942504;28;45354;-65
2022/11/14 06:05:21;;;;;;;;;27.75;21.00;;;;;9.24;62.04;100713.28;4944131;28;46211;-65
2022/11/14 06:07:47;;;;;;;;;24.50;18.75;;;;;9.23;62.25;100703.66;4942007;28;45290;-65
2022/11/14 06:10:12;;;;;;;;;29.25;21.25;;;;;9.23;62.24;100708.91;4955132;28;45219;-64
2022/11/14 06:12:39;;;;;;;;;20.00;16.75;;;;;9.23;61.80;100715.03;4942278;28;45214;-63
2022/11/14 06:15:04;;;;;;;;;28.00;22.75;;;;;9.21;62.12;100711.53;4956988;28;45432;-64
2022/11/14 06:17:30;;;;;;;;;25.25;18.00;;;;;9.25;62.05;100720.25;4942198;28;45258;-65
2022/11/14 06:19:56;;;;;;;;;22.50;21.25;;;;;9.25;62.45;100712.41;4952147;28;45558;-64
2022/11/14 06:22:21;;;;;;;;;25.00;21.75;;;;;9.24;62.04;100701.03;4951219;28;45413;-65
2022/11/14 06:24:47;;;;;;;;;28.50;24.50;;;;;9.25;62.04;100707.16;4945687;28;46230;-65
2022/11/14 06:27:12;;;;;;;;;29.50;24.50;;;;;9.24;62.10;100701.03;4951003;28;45646;-63
2022/11/14 06:29:37;;;;;;;;;29.00;22.25;;;;;9.23;62.23;100704.53;4956800;28;45488;-61
2022/11/14 06:32:03;;;;;;;;;18.00;16.75;;;;;9.23;62.36;100706.28;4941928;28;45409;-61
2022/11/14 06:34:28;;;;;;;;;22.50;21.25;;;;;9.23;61.94;100706.28;4945649;28;46064;-61
2022/11/14 06:36:53;;;;;;;;;21.75;16.25;;;;;9.23;62.36;100712.41;4950943;28;45302;-61
2022/11/14 06:39:19;;;;;;;;;23.75;21.75;;;;;9.23;62.09;100720.28;4941864;28;45330;-62
2022/11/14 06:41:44;;;;;;;;;25.00;20.75;;;;;9.24;62.26;100718.50;4941625;28;51295;-64
2022/11/14 06:44:09;;;;;;;;;24.50;21.75;;;;;9.21;62.31;100715.94;4941400;28;45377;-67
2022/11/14 06:46:35;;;;;;;;;37.00;30.75;;;;;9.22;62.37;100717.66;4941609;28;45413;-66
2022/11/14 06:49:00;;;;;;;;;32.50;27.00;;;;;9.19;62.18;100726.41;4941837;28;45345;-64
2022/11/14 06:51:25;;;;;;;;;17.00;17.00;;;;;9.18;62.59;100731.69;4940435;28;45371;-66
2022/11/14 06:53:50;;;;;;;;;17.25;16.50;;;;;9.14;62.40;100729.97;4941586;28;45410;-67
2022/11/14 06:56:17;;;;;;;;;25.00;18.75;;;;;9.09;62.59;100724.75;4941554;28;45392;-69
2022/11/14 06:58:44;;;;;;;;;19.50;15.25;;;;;9.09;62.36;100733.50;4956559;28;45278;-69
2022/11/14 07:01:11;;;;;;;;;18.50;15.00;;;;;9.08;62.38;100738.75;4941523;28;45584;-67
2022/11/14 07:03:37;;;;;;;;;16.50;14.00;;;;;9.02;62.48;100739.69;4959086;28;46459;-70
2022/11/14 07:06:04;;;;;;;;;17.00;14.50;;;;;8.99;62.55;100750.16;4958838;28;45501;-68
2022/11/14 07:08:30;;;;;;;;;16.75;15.50;;;;;8.91;62.57;100746.75;4956678;28;45483;-69
2022/11/14 07:11:08;;;;;;;;;18.00;13.50;;;;;8.91;62.44;100754.63;4955192;28;45412;-68
2022/11/14 07:13:34;;;;;;;;;20.50;16.25;;;;;8.90;62.70;100758.09;4957583;28;46329;-67
2022/11/14 07:16:00;;;;;;;;;18.25;14.50;;;;;8.86;62.67;100754.63;4958905;28;45342;-65
2022/11/14 07:18:25;;;;;;;;;24.75;19.75;;;;;8.78;62.65;100751.22;4955967;28;45498;-59
2022/11/14 07:21:03;;;;;;;;;14.00;14.00;;;;;8.78;62.86;100748.59;4957519;28;45551;-63
2022/11/14 07:23:31;;;;;;;;;15.50;15.50;;;;;8.73;63.00;100743.38;4953383;28;47473;-63
2022/11/14 07:26:01;;;;;;;;;14.75;14.25;;;;;8.71;63.15;100757.38;4958597;28;45372;-63
2022/11/14 07:28:27;;;;;;;;;16.75;14.00;;;;;8.66;62.99;100749.53;4955682;28;45491;-63
2022/11/14 07:30:52;;;;;;;;;16.00;15.25;;;;;8.61;62.73;100752.16;4956949;28;45540;-63
2022/11/14 07:33:17;;;;;;;;;13.25;12.25;;;;;8.60;62.82;100763.53;4956077;28;46256;-63
2022/11/14 07:35:43;;;;;;;;;13.50;12.50;;;;;8.56;62.82;100772.28;4955798;28;45341;-63
2022/11/14 07:38:08;;;;;;;;;18.25;13.00;;;;;8.56;62.86;100766.19;4958430;28;45303;-61
2022/11/14 07:40:34;;;;;;;;;15.25;11.00;;;;;8.55;62.88;100764.44;4956974;28;45389;-63
2022/11/14 07:43:00;;;;;;;;;16.00;13.50;;;;;8.52;62.77;100761.84;4957542;28;47169;-65
2022/11/14 07:45:27;;;;;;;;;16.00;13.75;;;;;8.51;62.84;100766.19;4953216;28;45246;-63
2022/11/14 07:47:56;;;;;;;;;9.50;9.25;;;;;8.50;62.96;100766.22;4954385;28;45228;-64
2022/11/14 07:50:22;;;;;;;;;12.75;12.75;;;;;8.50;62.87;100759.22;4956222;28;45901;-63
2022/11/14 07:52:54;;;;;;;;;10.75;9.25;;;;;8.44;62.61;100748.75;4957450;28;47367;-64
2022/11/14 07:55:20;;;;;;;;;13.25;11.50;;;;;8.48;62.67;100752.25;4953557;28;45294;-61
2022/11/14 07:57:47;;;;;;;;;13.25;11.00;;;;;8.48;62.70;100757.47;4956416;28;45551;-63
2022/11/14 08:00:14;;;;;;;;;13.25;12.25;;;;;8.51;62.84;100754.84;4957864;28;45456;-62
2022/11/14 08:02:39;;;;;;;;;14.25;12.50;;;;;8.51;62.96;100757.47;4957389;28;46052;-63
2022/11/14 08:05:05;;;;;;;;;21.50;17.50;;;;;8.47;62.86;100747.91;4952419;28;45444;-63
2022/11/14 08:07:30;;;;;;;;;15.75;11.75;;;;;8.49;63.09;100759.22;4957479;28;45472;-63
2022/11/14 08:09:56;;;;;;;;;17.00;14.75;;;;;8.51;62.82;100757.47;4954753;28;45278;-64
2022/11/14 08:12:21;;;;;;;;;13.50;12.25;;;;;8.50;63.17;100750.50;4954112;28;45880;-63
2022/11/14 08:14:46;;;;;;;;;20.00;15.50;;;;;8.52;62.85;100757.47;4953355;28;45278;-62
2022/11/14 08:17:11;;;;;;;;;15.75;15.00;;;;;8.53;63.11;100753.09;4958182;28;45317;-63
2022/11/14 08:19:37;;;;;;;;;19.00;17.00;;;;;8.54;63.11;100750.47;4959189;28;45500;-63
2022/11/14 08:22:02;;;;;;;;;15.75;15.75;;;;;8.54;62.99;100750.47;4959489;28;46038;-63
2022/11/14 08:24:27;;;;;;;;;16.00;14.75;;;;;8.57;63.41;100752.22;4958038;28;45340;-63
2022/11/14 08:26:53;;;;;;;;;17.25;15.50;;;;;8.61;63.09;100751.31;4956114;28;45409;-64
2022/11/14 08:29:19;;;;;;;;;15.75;15.00;;;;;8.61;62.99;100753.94;4961158;28;45274;-64
2022/11/14 08:31:45;;;;;;;;;18.00;15.00;;;;;8.64;63.21;100753.94;4960201;28;45327;-64
2022/11/14 08:34:10;;;;;;;;;18.75;16.00;;;;;8.66;62.88;100749.53;4959694;28;45464;-63
2022/11/14 08:36:35;;;;;;;;;20.25;17.00;;;;;8.69;63.18;100748.63;4957830;28;45315;-64
2022/11/14 08:39:01;;;;;;;;;23.50;22.00;;;;;8.72;63.30;100753.88;4958589;28;45356;-64
2022/11/14 08:41:26;;;;;;;;;21.25;15.50;;;;;8.71;63.21;100747.75;4960763;28;46333;-63
2022/11/14 08:43:52;;;;;;;;;20.00;17.50;;;;;8.74;63.31;100752.09;4959940;28;45496;-64
2022/11/14 08:46:17;;;;;;;;;27.75;22.50;;;;;8.74;63.16;100750.38;4958649;28;45469;-66
2022/11/14 08:48:42;;;;;;;;;31.50;26.50;;;;;8.76;63.03;100751.19;4958927;28;45612;-65
2022/11/14 08:51:07;;;;;;;;;21.25;18.25;;;;;8.80;63.13;100751.19;4960104;28;55188;-64
2022/11/14 08:53:33;;;;;;;;;24.00;19.00;;;;;8.82;63.47;100760.78;4958370;28;45283;-65
2022/11/14 08:55:59;;;;;;;;;15.50;14.50;;;;;8.84;63.29;100758.16;4958674;28;45520;-64
2022/11/14 08:58:28;;;;;;;;;24.00;20.50;;;;;8.86;63.58;100756.41;4959921;28;45638;-63
2022/11/14 09:00:53;;;;;;;;;23.25;22.25;;;;;8.84;63.27;100756.41;4955611;28;48348;-63
2022/11/14 09:03:18;;;;;;;;;21.25;19.25;;;;;8.87;63.28;100753.75;4960421;28;45358;-62
2022/11/14 09:05:50;;;;;;;;;20.75;18.50;;;;;8.92;63.34;100761.59;4956832;28;45258;-63
2022/11/14 09:08:15;;;;;;;;;18.75;17.25;;;;;8.93;63.14;100756.34;4960004;28;45453;-63
2022/11/14 09:10:41;;;;;;;;;23.00;19.75;;;;;8.97;63.46;100766.78;4957741;28;46091;-62
2022/11/14 09:13:06;;;;;;;;;21.00;16.50;;;;;8.96;63.51;100760.69;4959139;28;45278;-63
2022/11/14 09:15:32;;;;;;;;;19.50;16.25;;;;;9.01;63.20;100768.53;4955978;28;45226;-63
2022/11/14 09:17:59;;;;;;;;;21.50;20.00;;;;;9.03;63.69;100766.75;4960821;28;45310;-63
2022/11/14 09:20:25;;;;;;;;;16.25;15.00;;;;;9.01;63.50;100758.91;4956666;28;45347;-63
2022/11/14 09:22:52;;;;;;;;;26.50;21.00;;;;;9.06;63.42;100764.13;4943105;28;45304;-63
2022/11/14 09:25:18;;;;;;;;;27.50;23.00;;;;;9.05;63.57;100765.00;4946370;28;45397;-63
2022/11/14 09:27:43;;;;;;;;;26.50;24.25;;;;;9.09;63.81;100767.59;4942982;28;45302;-63
2022/11/14 09:30:10;;;;;;;;;18.00;14.25;;;;;9.13;63.42;100765.78;4940384;28;46965;-63
2022/11/14 09:32:35;;;;;;;;;15.75;14.25;;;;;9.15;63.40;100765.81;4942975;28;45310;-62
2022/11/14 09:35:00;;;;;;;;;23.75;19.50;;;;;9.15;63.49;100765.81;4941520;28;45336;-64
2022/11/14 09:37:26;;;;;;;;;16.50;16.50;;;;;9.16;63.25;100762.31;4942923;28;45446;-64
2022/11/14 09:39:51;;;;;;;;;25.25;23.50;;;;;9.18;63.49;100761.41;4942604;28;46138;-63
2022/11/14 09:42:51;;;;;;;;;29.00;24.50;;;;;9.20;63.26;100756.16;4942574;28;51937;-63
2022/11/14 09:45:17;;;;;;;;;21.50;17.25;;;;;9.22;63.57;100754.34;4931334;28;45435;-63
2022/11/14 09:47:53;;;;;;;;;25.50;24.25;;;;;9.22;63.55;100744.75;4942448;28;45406;-64
2022/11/14 09:50:24;;;;;;;;;24.75;23.25;;;;;9.26;63.33;100746.47;4941880;28;46377;-63
2022/11/14 09:52:55;;;;;;;;;31.25;26.75;;;;;9.27;63.62;100744.72;4942128;28;45389;-63
2022/11/14 09:55:26;;;;;;;;;25.50;22.00;;;;;9.31;63.39;100749.06;4942082;28;45457;-64
2022/11/14 09:57:52;;;;;;;;;26.25;23.50;;;;;9.35;63.78;100749.91;4942184;28;45409;-62
2022/11/14 10:00:27;;;;;;;;;22.00;18.50;;;;;9.38;63.40;100750.75;4942410;28;45283;-62
2022/11/14 10:03:05;;;;;;;;;23.25;21.00;;;;;9.42;63.59;100744.59;4941368;28;45421;-63
2022/11/14 10:05:49;;;;;;;;;28.50;25.00;;;;;9.47;63.56;100743.66;4951708;28;45381;-62
2022/11/14 10:08:14;;;;;;;;;22.75;20.50;;;;;9.48;63.61;100737.53;4949822;28;45434;-63
2022/11/14 10:10:55;;;;;;;;;26.25;20.00;;;;;9.53;63.63;100748.84;4942115;28;45327;-63
2022/11/14 10:13:45;;;;;;;;;49.50;38.00;;;;;9.58;63.67;100757.53;4942454;28;45222;-63
2022/11/14 10:16:21;;;;;;;;;67.00;51.75;;;;;9.60;63.73;100755.78;4952059;28;45267;-63
2022/11/14 10:19:05;;;;;;;;;75.50;57.25;;;;;9.64;63.78;100751.38;4961475;28;45495;-63
2022/11/14 10:21:53;;;;;;;;;81.67;67.67;;;;;9.69;63.81;100747.81;4947978;28;45427;-63
2022/11/14 10:24:49;;;;;;;;;64.25;49.50;;;;;9.70;63.95;100746.06;4940968;28;45376;-63
2022/11/14 10:27:29;;;;;;;;;59.50;46.50;;;;;9.75;64.11;100755.63;4942260;28;45461;-63
2022/11/14 10:30:14;;;;;;;;;34.00;31.50;;;;;9.78;63.94;100749.47;4942047;28;45553;-63
2022/11/14 10:32:51;;;;;;;;;34.00;29.50;;;;;9.82;63.89;100750.31;4942202;28;45489;-63
2022/11/14 10:35:26;;;;;;;;;24.50;22.75;;;;;9.82;63.44;100742.44;4948483;28;45162;-64
2022/11/14 10:38:14;;;;;;;;;30.50;27.00;;;;;9.84;63.82;100732.78;4961518;28;45225;-63
2022/11/14 10:40:44;;;;;;;;;27.25;24.75;;;;;9.89;63.70;100725.72;4961345;28;45325;-64
2022/11/14 10:43:31;;;;;;;;;25.25;25.25;;;;;9.92;63.90;100728.31;4960726;28;45418;-63
2022/11/14 10:46:04;;;;;;;;;33.50;27.00;;;;;9.94;63.85;100723.91;4961136;28;45257;-64
2022/11/14 10:48:36;;;;;;;;;34.50;28.25;;;;;9.98;63.97;100725.63;4961458;28;45677;-64
2022/11/14 10:51:24;;;;;;;;;22.25;22.00;;;;;10.04;63.89;100725.53;4961149;28;45174;-63
2022/11/14 10:54:00;;;;;;;;;29.00;27.75;;;;;10.07;63.82;100714.13;4959705;28;47068;-64
2022/11/14 10:56:25;;;;;;;;;27.25;23.50;;;;;10.06;64.59;100713.28;4961129;28;45318;-65
2022/11/14 10:58:50;;;;;;;;;25.00;24.50;;;;;10.17;63.86;100714.88;4960942;28;45330;-64
2022/11/14 11:01:35;;;;;;;;;25.75;24.25;;;;;10.20;64.03;100707.84;4961319;28;45321;-64
2022/11/14 11:04:25;;;;;;;;;28.25;24.00;;;;;10.29;63.97;100706.84;4960972;28;46015;-64
2022/11/14 11:06:54;;;;;;;;;21.75;20.50;;;;;10.36;64.04;100713.81;4941316;28;45350;-64
2022/11/14 11:12:07;;;;;;;;;24.25;23.00;;;;;10.47;63.97;100708.38;4941385;28;45324;-64
2022/11/14 11:14:34;;;;;;;;;25.00;23.25;;;;;10.53;64.01;100707.44;4940098;28;46886;-63
2022/11/14 11:17:13;;;;;;;;;22.75;21.50;;;;;10.59;63.85;100696.84;4941372;28;45247;-63
2022/11/14 11:19:38;;;;;;;;;24.25;21.00;;;;;10.64;64.04;100700.25;4949015;28;45491;-63
2022/11/14 11:22:22;;;;;;;;;26.00;24.50;;;;;10.70;64.02;100694.03;4942484;28;45314;-64
2022/11/14 11:24:47;;;;;;;;;28.75;23.00;;;;;10.77;63.54;100690.41;4944150;28;48278;-65
2022/11/14 11:27:21;;;;;;;;;34.75;26.25;;;;;10.83;63.95;100679.81;4941127;28;45361;-64
2022/11/14 11:30:08;;;;;;;;;27.75;24.50;;;;;10.91;64.01;100671.78;4941463;28;45358;-64
2022/11/14 11:32:34;;;;;;;;;23.25;21.25;;;;;11.00;63.95;100679.50;4941205;28;45356;-64
2022/11/14 11:35:02;;;;;;;;;25.25;23.25;;;;;11.09;64.30;100675.84;4940858;28;46254;-64
2022/11/14 11:37:40;;;;;;;;;24.00;23.00;;;;;11.20;63.99;100673.06;4941319;28;45311;-65
2022/11/14 11:40:12;;;;;;;;;31.00;26.50;;;;;11.36;64.10;100671.88;4941205;28;45150;-66
2022/11/14 11:43:02;;;;;;;;;32.25;29.25;;;;;11.54;64.10;100669.78;4941083;28;45232;-64
2022/11/14 11:45:29;;;;;;;;;24.75;22.50;;;;;11.68;64.07;100646.72;4940822;28;46389;-65
2022/11/14 11:48:07;;;;;;;;;21.75;21.75;;;;;11.90;64.14;100645.38;4940941;28;45441;-64
2022/11/14 11:50:32;;;;;;;;;25.25;23.75;;;;;12.08;64.23;100649.44;4940984;28;45307;-65
2022/11/14 11:53:16;;;;;;;;;26.50;26.00;;;;;12.27;63.90;100648.09;4940864;28;45571;-65
2022/11/14 11:55:45;;;;;;;;;22.25;21.25;;;;;12.40;63.84;100638.19;4944056;28;45518;-66
2022/11/14 11:58:31;;;;;;;;;23.25;21.50;;;;;12.58;63.92;100631.59;4944325;28;45215;-65
2022/11/14 12:00:57;;;;;;;;;25.00;23.50;;;;;12.72;63.74;100630.41;4944253;28;45300;-65
2022/11/14 12:03:24;;;;;;;;;21.00;19.25;;;;;12.88;63.64;100629.09;4943065;28;45523;-65
2022/11/14 12:06:15;;;;;;;;;27.75;27.25;;;;;13.07;63.59;100628.59;4956080;28;45429;-64
2022/11/14 12:08:55;;;;;;;;;24.50;22.50;;;;;13.26;63.59;100624.56;4963180;28;45239;-64
2022/11/14 12:11:25;;;;;;;;;21.00;19.25;;;;;13.43;63.64;100620.63;4963594;28;45311;-64
2022/11/14 12:13:57;;;;;;;;;27.75;23.75;;;;;13.59;63.32;100621.94;4963251;28;45188;-64
2022/11/14 12:16:35;;;;;;;;;24.25;21.25;;;;;13.74;63.24;100617.13;4963439;28;46762;-64
2022/11/14 12:19:11;;;;;;;;;33.25;30.25;;;;;13.90;63.16;100614.88;4963113;28;45227;-65
2022/11/14 12:22:02;;;;;;;;;23.75;20.50;;;;;14.04;63.01;100598.63;4949582;28;45369;-65
2022/11/14 12:24:34;;;;;;;;;24.75;24.00;;;;;14.19;63.01;100599.91;4945122;28;45525;-64
2022/11/14 12:27:44;;;;;;;;;26.75;23.25;;;;;14.34;63.06;100606.47;4945265;28;45363;-64
2022/11/14 12:30:20;;;;;;;;;27.00;25.75;;;;;14.50;62.77;100593.66;4942347;28;45262;-65
2022/11/14 12:33:09;;;;;;;;;25.75;23.50;;;;;14.65;62.93;100601.09;4943763;28;45231;-66
2022/11/14 12:35:36;;;;;;;;;27.75;24.75;;;;;14.78;62.73;100591.84;4932845;28;45372;-65
2022/11/14 12:38:11;;;;;;;;;24.50;24.50;;;;;14.87;62.78;100582.72;4942073;28;47116;-65
2022/11/14 12:40:40;;;;;;;;;29.25;25.75;;;;;15.01;62.73;100581.38;4943641;28;45382;-64
2022/11/14 12:43:33;;;;;;;;;24.50;23.50;;;;;15.11;62.47;100578.34;4943624;28;45218;-64
2022/11/14 12:46:01;;;;;;;;;21.75;19.75;;;;;15.19;62.42;100578.06;4943362;28;45366;-64
2022/11/14 12:48:31;;;;;;;;;28.25;26.00;;;;;15.23;62.12;100576.19;4943685;28;46135;-64
2022/11/14 12:50:58;;;;;;;;;24.75;23.75;;;;;15.21;61.86;100570.09;4943146;28;45459;-64
2022/11/14 12:53:35;;;;;;;;;27.75;25.50;;;;;15.32;62.17;100585.56;4943583;28;45234;-64
2022/11/14 12:56:25;;;;;;;;;26.25;24.25;;;;;15.32;61.96;100573.22;4943245;28;45417;-63
2022/11/14 12:59:11;;;;;;;;;24.50;24.50;;;;;15.42;61.91;100573.72;4942089;28;47078;-63
2022/11/14 13:01:51;;;;;;;;;26.00;23.50;;;;;15.48;61.78;100567.34;4952441;28;45380;-64
2022/11/14 13:04:55;;;;;;;;;24.25;22.75;;;;;15.57;61.40;100557.28;4962346;28;45365;-64
2022/11/14 13:08:01;;;;;;;;;29.75;26.75;;;;;15.67;61.34;100562.22;4946555;28;45247;-64
2022/11/14 13:10:37;;;;;;;;;28.75;26.25;;;;;15.69;61.27;100547.13;4962277;28;45389;-66
2022/11/14 13:21:46;;;;;;;;;26.50;21.75;;;;;16.15;60.91;100545.34;4942701;28;45577;-64
2022/11/14 13:24:18;;;;;;;;;31.25;28.00;;;;;16.28;61.00;100543.03;4941879;28;45370;-63
2022/11/14 13:26:49;;;;;;;;;21.50;20.00;;;;;16.40;60.75;100554.91;4957358;28;45385;-63
2022/11/14 13:29:53;;;;;;;;;26.50;24.25;;;;;16.47;60.94;100547.59;4962238;28;45398;-64
2022/11/14 13:32:40;;;;;;;;;23.25;22.75;;;;;16.52;60.37;100545.59;4913168;28;46244;-64
2022/11/14 13:35:19;;;;;;;;;34.75;31.75;;;;;16.51;60.68;100539.41;4919555;28;45425;-64
2022/11/14 13:38:25;;;;;;;;;27.50;26.25;;;;;16.44;60.36;100531.78;4936639;28;45544;-64
2022/11/14 13:41:23;;;;;;;;;30.00;28.50;;;;;16.31;60.44;100527.00;4942687;28;45331;-63
2022/11/14 13:44:35;;;;;;;;;26.00;24.00;;;;;16.27;60.47;100529.84;4952506;28;46223;-63
2022/11/14 13:47:10;;;;;;;;;43.75;36.75;;;;;16.18;60.46;100525.78;4921699;28;45484;-63
2022/11/14 13:50:06;;;;;;;;;29.00;26.00;;;;;16.08;60.55;100525.31;4942581;28;45266;-63
2022/11/14 13:52:34;;;;;;;;;33.00;26.00;;;;;16.00;60.34;100515.00;4942495;28;45226;-63
2022/11/14 13:55:01;;;;;;;;;37.75;34.25;;;;;15.94;59.97;100523.22;4942751;28;46259;-64
2022/11/14 13:57:44;;;;;;;;;35.75;32.75;;;;;15.87;60.19;100516.44;4942200;28;45270;-63
2022/11/14 14:00:15;;;;;;;;;33.25;31.75;;;;;15.75;60.33;100509.81;4942537;28;45396;-63
2022/11/14 14:03:09;;;;;;;;;35.50;30.25;;;;;15.70;60.23;100514.44;4941225;28;45576;-64
2022/11/14 14:05:58;;;;;;;;;43.50;36.25;;;;;15.59;60.43;100509.53;4952075;28;47008;-64
2022/11/14 14:08:33;;;;;;;;;34.50;31.75;;;;;15.53;60.50;100510.63;4956974;28;45378;-64
2022/11/14 14:11:10;;;;;;;;;32.75;30.00;;;;;15.46;60.29;100503.84;4942357;28;45262;-64
2022/11/14 14:13:53;;;;;;;;;36.00;30.75;;;;;15.31;60.47;100491.19;4941853;28;45600;-64
2022/11/14 14:16:35;;;;;;;;;37.25;29.75;;;;;15.32;60.71;100496.44;4939934;28;45360;-64
2022/11/14 14:19:22;;;;;;;;;43.00;36.25;;;;;15.25;60.35;100493.13;4943441;28;45293;-64
2022/11/14 14:22:00;;;;;;;;;37.75;34.00;;;;;15.23;60.78;100497.66;4944823;28;45361;-64
2022/11/14 14:24:42;;;;;;;;;39.50;33.00;;;;;15.19;60.58;100493.38;4942969;28;45295;-64
2022/11/14 14:27:36;;;;;;;;;39.75;32.00;;;;;15.16;60.96;100493.50;4942338;28;46189;-63
2022/11/14 14:30:18;;;;;;;;;33.50;32.25;;;;;15.15;60.89;100493.56;4941868;28;45353;-63
2022/11/14 14:33:11;;;;;;;;;29.25;26.75;;;;;15.11;61.00;100483.06;4941777;28;45334;-64
2022/11/14 14:35:40;;;;;;;;;31.50;30.25;;;;;15.14;60.85;100486.53;4959007;28;45482;-63
2022/11/14 14:38:22;;;;;;;;;38.50;31.00;;;;;15.12;60.84;100481.31;4958335;28;46225;-63
2022/11/14 14:40:47;;;;;;;;;34.00;32.25;;;;;15.08;60.91;100477.03;4956850;28;45455;-64
2022/11/14 14:43:39;;;;;;;;;39.50;34.25;;;;;15.07;60.92;100473.53;4957487;28;45426;-63
2022/11/14 14:46:05;;;;;;;;;31.25;27.25;;;;;15.05;60.79;100483.28;4954132;28;45540;-63
2022/11/14 14:48:34;;;;;;;;;33.75;31.50;;;;;15.03;60.99;100489.56;4958106;28;47392;-65
2022/11/14 14:51:00;;;;;;;;;29.00;28.00;;;;;14.99;61.06;100491.47;4957733;28;45174;-64
2022/11/14 14:53:34;;;;;;;;;32.75;27.75;;;;;14.95;61.63;100479.25;4958013;28;45279;-64
2022/11/14 14:56:02;;;;;;;;;33.25;31.00;;;;;14.97;61.27;100484.50;4955195;28;45373;-64
2022/11/14 14:58:31;;;;;;;;;31.00;29.75;;;;;15.01;61.80;100486.13;4958230;28;47339;-63
2022/11/14 15:01:10;;;;;;;;;29.75;28.00;;;;;14.99;61.65;100493.25;4957915;28;45331;-64
2022/11/14 15:03:38;;;;;;;;;21.25;20.50;;;;;14.95;61.92;100495.13;4957873;28;45302;-64
2022/11/14 15:06:19;;;;;;;;;24.25;23.25;;;;;14.97;61.89;100497.72;4955171;28;45335;-63
2022/11/14 15:08:45;;;;;;;;;27.00;23.00;;;;;14.96;62.20;100491.59;4955300;28;47636;-64
2022/11/14 15:11:13;;;;;;;;;20.25;18.00;;;;;14.97;61.93;100493.31;4958343;28;45243;-64
2022/11/14 15:13:41;;;;;;;;;25.25;23.75;;;;;14.95;62.70;100490.72;4956742;28;45415;-63
2022/11/14 15:16:08;;;;;;;;;26.00;24.00;;;;;14.86;62.96;100485.75;4957476;28;45490;-63
2022/11/14 15:18:34;;;;;;;;;21.75;19.00;;;;;14.97;62.34;100503.91;4954813;28;46055;-64
2022/11/14 15:21:27;;;;;;;;;21.00;19.50;;;;;14.94;62.69;100502.22;4958605;28;45261;-64
2022/11/14 15:24:14;;;;;;;;;19.00;18.50;;;;;14.96;62.96;100502.16;4946300;28;45598;-61
2022/11/14 15:26:43;;;;;;;;;27.00;21.25;;;;;14.95;62.70;100481.91;4956292;28;45417;-61
2022/11/14 15:29:22;;;;;;;;;20.75;18.25;;;;;14.95;62.91;100493.38;4959974;28;46865;-61
2022/11/14 15:31:56;;;;;;;;;20.25;14.50;;;;;14.95;63.26;100495.13;4954648;28;45380;-62
2022/11/14 15:34:31;;;;;;;;;16.50;15.25;;;;;14.90;63.22;100495.31;4944705;28;45322;-61
2022/11/14 15:37:17;;;;;;;;;21.00;19.25;;;;;14.85;63.44;100499.03;4944106;28;45409;-64
2022/11/14 15:39:44;;;;;;;;;20.25;19.25;;;;;14.87;63.57;100489.28;4949622;28;45551;-61
2022/11/14 15:42:25;;;;;;;;;23.00;19.75;;;;;14.86;63.16;100492.84;4944412;28;45509;-61
2022/11/14 15:44:51;;;;;;;;;19.50;17.50;;;;;14.79;63.36;100494.81;4944174;28;45472;-61
2022/11/14 15:47:23;;;;;;;;;15.75;14.25;;;;;14.84;63.54;100482.31;4944266;28;45338;-61
2022/11/14 15:49:59;;;;;;;;;22.50;18.75;;;;;14.80;63.33;100499.19;4943710;28;45502;-61
2022/11/14 15:52:31;;;;;;;;;23.75;19.50;;;;;14.78;63.27;100498.41;4942807;28;45399;-61
2022/11/14 15:54:56;;;;;;;;;19.75;15.00;;;;;14.78;63.15;100503.69;4944365;28;45377;-61
2022/11/14 15:57:21;;;;;;;;;19.25;19.25;;;;;14.78;63.62;100501.06;4943660;28;45251;-61
2022/11/14 15:59:46;;;;;;;;;18.25;16.00;;;;;14.78;63.13;100504.56;4944071;28;45312;-61
2022/11/14 16:02:20;;;;;;;;;19.75;18.50;;;;;14.79;63.26;100505.41;4942684;28;45962;-62
2022/11/14 16:04:47;;;;;;;;;23.50;20.50;;;;;14.77;63.13;100507.25;4947803;28;45257;-61
2022/11/14 16:07:14;;;;;;;;;22.25;17.50;;;;;14.76;63.35;100510.81;4961940;28;45515;-62
2022/11/14 16:09:40;;;;;;;;;20.00;20.00;;;;;14.73;63.45;100509.16;4961803;28;48340;-62
2022/11/14 16:12:06;;;;;;;;;21.00;20.50;;;;;14.76;63.62;100508.16;4962892;28;45338;-62
2022/11/14 16:14:31;;;;;;;;;19.50;18.25;;;;;14.77;63.53;100510.75;4963493;28;45352;-62
2022/11/14 16:16:57;;;;;;;;;31.75;26.75;;;;;14.75;63.16;100509.97;4961859;28;45266;-62
2022/11/14 16:19:22;;;;;;;;;22.25;20.00;;;;;14.77;63.38;100513.41;4963117;28;45393;-62
2022/11/14 16:21:48;;;;;;;;;24.50;21.00;;;;;14.77;63.33;100508.09;4947436;28;45295;-62
2022/11/14 16:24:22;;;;;;;;;21.25;18.50;;;;;14.75;63.34;100509.97;4956764;28;45510;-62
2022/11/14 16:26:48;;;;;;;;;23.00;20.50;;;;;14.77;63.83;100517.84;4943542;28;45430;-62
2022/11/14 16:29:14;;;;;;;;;25.75;21.75;;;;;14.75;63.78;100509.97;4943802;28;45350;-62
2022/11/14 16:31:40;;;;;;;;;22.75;20.25;;;;;14.79;63.74;100513.34;4943418;28;45240;-62
2022/11/14 16:34:06;;;;;;;;;23.50;21.50;;;;;14.77;63.62;100518.69;4943864;28;45310;-62
2022/11/14 16:36:31;;;;;;;;;38.00;30.00;;;;;14.80;63.63;100523.00;4943395;28;45343;-62
2022/11/14 16:39:00;;;;;;;;;23.25;21.75;;;;;14.81;63.40;100521.25;4943303;28;46272;-62
2022/11/14 16:41:25;;;;;;;;;25.50;22.50;;;;;14.78;63.42;100522.22;4942895;28;45432;-62
2022/11/14 16:43:55;;;;;;;;;19.75;17.50;;;;;14.79;63.73;100523.91;4958176;28;45342;-62
2022/11/14 16:46:21;;;;;;;;;23.00;22.00;;;;;14.78;63.62;100520.41;4943452;28;45359;-62
2022/11/14 16:48:46;;;;;;;;;26.00;22.50;;;;;14.83;63.63;100533.50;4943268;28;45191;-62
2022/11/14 16:51:12;;;;;;;;;24.00;21.75;;;;;14.80;63.46;100528.28;4942998;28;45437;-62
2022/11/14 16:53:37;;;;;;;;;21.00;19.00;;;;;14.81;63.48;100530.03;4947349;28;45456;-62
2022/11/14 16:56:03;;;;;;;;;22.75;21.50;;;;;14.81;63.55;100530.03;4952563;28;46377;-62
2022/11/14 16:58:28;;;;;;;;;25.00;23.50;;;;;14.78;64.04;100528.34;4957742;28;46151;-62
2022/11/14 17:00:54;;;;;;;;;32.00;28.25;;;;;14.82;64.00;100526.47;4951188;28;45508;-62
2022/11/14 17:03:19;;;;;;;;;24.75;23.25;;;;;14.83;63.98;100527.31;4952912;28;45498;-62
2022/11/14 17:05:50;;;;;;;;;25.50;23.75;;;;;14.84;63.46;100531.69;4954901;28;45719;-62
2022/11/14 17:08:16;;;;;;;;;34.50;28.50;;;;;14.83;63.47;100528.19;4950138;28;46404;-62
2022/11/14 17:10:43;;;;;;;;;25.25;22.75;;;;;14.83;63.52;100525.56;4957635;28;45445;-63
2022/11/14 17:13:09;;;;;;;;;25.25;23.75;;;;;14.82;63.78;100523.81;4959473;28;45258;-63
2022/11/14 17:15:35;;;;;;;;;30.00;28.00;;;;;14.83;63.73;100525.56;4956390;28;45557;-63
2022/11/14 17:18:00;;;;;;;;;28.75;26.75;;;;;14.83;63.87;100528.19;4960504;28;46275;-63
2022/11/14 17:20:26;;;;;;;;;44.50;37.00;;;;;14.82;64.04;100525.59;4957991;28;45420;-63
2022/11/14 17:22:51;;;;;;;;;43.00;35.50;;;;;14.84;63.91;100521.13;4954482;28;45445;-62
2022/11/14 17:25:17;;;;;;;;;33.75;27.25;;;;;14.85;64.16;100522.84;4956441;28;45332;-64
2022/11/14 17:27:42;;;;;;;;;68.50;51.00;;;;;14.86;64.14;100521.94;4957720;28;45941;-63
2022/11/14 17:30:11;;;;;;;;;39.25;33.25;;;;;14.86;63.74;100524.59;4960039;28;45726;-63